createdAt,value
2023-04-18T00:01:09.823Z,7.75
2023-04-18T00:03:39.027Z,9.05
2023-04-18T00:06:08.596Z,8.80
2023-04-18T00:08:36.604Z,8.68
2023-04-18T00:11:04.672Z,8.13
2023-04-18T00:13:32.742Z,7.93
2023-04-18T00:16:01.778Z,7.57
2023-04-18T00:18:29.814Z,9.05
2023-04-18T00:20:57.859Z,8.82
2023-04-18T00:23:28.283Z,9.00
2023-04-18T00:25:56.317Z,8.50
2023-04-18T00:28:24.368Z,7.80
2023-04-18T00:30:52.414Z,7.95
2023-04-18T00:33:20.602Z,9.48
2023-04-18T00:35:48.556Z,9.10
2023-04-18T00:38:16.552Z,9.25
2023-04-18T00:40:45.908Z,9.75
2023-04-18T00:43:14.629Z,9.68
2023-04-18T00:45:42.673Z,10.85
2023-04-18T00:48:12.314Z,9.88
2023-04-18T00:50:41.711Z,10.43
2023-04-18T00:53:10.925Z,10.85
2023-04-18T00:55:40.655Z,10.57
2023-04-18T00:58:10.904Z,11.07
2023-04-18T01:00:39.122Z,10.85
2023-04-18T01:03:08.428Z,10.57
2023-04-18T01:05:37.254Z,10.73
2023-04-18T01:08:05.601Z,9.45
2023-04-18T01:10:37.670Z,10.60
2023-04-18T01:13:14.421Z,9.35
2023-04-18T01:15:43.590Z,9.52
2023-04-18T01:18:13.148Z,9.82
2023-04-18T01:20:45.739Z,8.73
2023-04-18T01:23:13.813Z,9.18
2023-04-18T01:25:43.906Z,10.13
2023-04-18T01:28:13.631Z,10.23
2023-04-18T01:30:41.939Z,9.30
2023-04-18T01:33:09.934Z,10.10
2023-04-18T01:35:37.940Z,9.27
2023-04-18T01:38:05.982Z,9.02
2023-04-18T01:40:34.968Z,9.55
2023-04-18T01:43:04.250Z,10.00
2023-04-18T01:45:32.358Z,9.05
2023-04-18T01:48:00.396Z,9.52
2023-04-18T01:50:28.426Z,8.82
2023-04-18T01:52:56.468Z,9.85
2023-04-18T01:55:24.488Z,9.00
2023-04-18T01:57:52.935Z,8.02
2023-04-18T02:00:22.846Z,8.70
2023-04-18T02:02:51.430Z,8.70
2023-04-18T02:05:22.216Z,8.80
2023-04-18T02:07:50.682Z,9.77
2023-04-18T02:10:18.924Z,9.15
2023-04-18T02:12:46.944Z,8.85
2023-04-18T02:15:15.022Z,9.10
2023-04-18T02:17:44.428Z,9.38
2023-04-18T02:20:13.342Z,8.70
2023-04-18T02:22:41.342Z,7.63
2023-04-18T02:25:10.850Z,8.55
2023-04-18T02:27:40.368Z,8.77
2023-04-18T02:30:09.422Z,9.32
2023-04-18T02:32:37.469Z,9.18
2023-04-18T02:35:07.684Z,9.13
2023-04-18T02:37:35.774Z,9.35
2023-04-18T02:40:05.560Z,9.00
2023-04-18T02:42:33.564Z,8.88
2023-04-18T02:45:02.634Z,8.50
2023-04-18T02:47:35.243Z,9.27
2023-04-18T02:50:11.203Z,8.73
2023-04-18T02:52:39.358Z,8.52
2023-04-18T02:55:08.907Z,9.55
2023-04-18T02:57:40.622Z,9.27
2023-04-18T03:00:40.201Z,9.40
2023-04-18T03:03:40.499Z,9.38
2023-04-18T03:06:27.241Z,9.40
2023-04-18T03:08:55.699Z,9.85
2023-04-18T03:11:24.742Z,9.30
2023-04-18T03:13:53.103Z,9.75
2023-04-18T03:16:23.284Z,9.68
2023-04-18T03:18:51.448Z,9.02
2023-04-18T03:21:20.718Z,8.60
2023-04-18T03:23:50.237Z,9.93
2023-04-18T03:26:18.301Z,9.23
2023-04-18T03:28:46.949Z,9.55
2023-04-18T03:31:15.153Z,10.30
2023-04-18T03:33:45.959Z,10.00
2023-04-18T03:36:17.247Z,8.98
2023-04-18T03:38:45.923Z,9.88
2023-04-18T03:41:15.453Z,9.70
2023-04-18T03:43:43.486Z,9.75
2023-04-18T03:46:11.592Z,9.98
2023-04-18T03:48:39.713Z,9.75
2023-04-18T03:51:10.754Z,9.60
2023-04-18T03:53:40.463Z,10.48
2023-04-18T03:56:08.650Z,9.73
2023-04-18T03:58:50.541Z,10.10
2023-04-18T04:01:19.918Z,9.60
2023-04-18T04:03:48.192Z,10.23
2023-04-18T04:06:17.650Z,8.93
2023-04-18T04:08:46.148Z,8.95
2023-04-18T04:11:17.509Z,9.32
2023-04-18T04:13:45.672Z,10.20
2023-04-18T04:16:17.653Z,9.52
2023-04-18T04:18:46.743Z,9.10
2023-04-18T04:21:15.733Z,9.07
2023-04-18T04:23:48.918Z,9.32
2023-04-18T04:26:30.690Z,9.45
2023-04-18T04:29:04.190Z,9.40
2023-04-18T04:31:36.169Z,8.98
2023-04-18T04:34:05.041Z,10.05
2023-04-18T04:36:34.848Z,9.30
2023-04-18T04:39:05.289Z,9.45
2023-04-18T04:41:42.536Z,8.75
2023-04-18T04:44:11.332Z,9.00
2023-04-18T04:46:41.341Z,8.82
2023-04-18T04:49:16.063Z,9.48
2023-04-18T04:51:44.337Z,10.13
2023-04-18T04:54:12.630Z,10.48
2023-04-18T04:56:41.339Z,9.68
2023-04-18T04:59:09.629Z,10.18
2023-04-18T05:01:43.182Z,9.73
2023-04-18T05:04:11.477Z,10.20
2023-04-18T05:06:40.428Z,9.68
2023-04-18T05:09:08.436Z,11.10
2023-04-18T05:11:36.464Z,10.10
2023-04-18T05:14:04.805Z,10.13
2023-04-18T05:16:32.950Z,10.63
2023-04-18T05:19:02.469Z,11.02
2023-04-18T05:21:31.281Z,11.02
2023-04-18T05:23:59.333Z,11.23
2023-04-18T05:26:27.396Z,9.82
2023-04-18T05:28:55.469Z,11.57
2023-04-18T05:31:23.501Z,11.05
2023-04-18T05:33:51.589Z,11.73
2023-04-18T05:36:21.264Z,11.25
2023-04-18T05:38:49.347Z,11.15
2023-04-18T05:41:17.402Z,11.27
2023-04-18T05:43:51.134Z,10.57
2023-04-18T05:46:26.220Z,9.70
2023-04-18T05:48:54.280Z,11.38
2023-04-18T05:51:23.762Z,11.73
2023-04-18T05:53:51.756Z,11.20
2023-04-18T05:56:19.781Z,11.23
2023-04-18T05:58:47.914Z,11.23
2023-04-18T06:01:16.264Z,11.10
2023-04-18T06:03:44.444Z,11.95
2023-04-18T06:06:12.856Z,11.65
2023-04-18T06:08:42.316Z,11.18
2023-04-18T06:11:10.378Z,10.52
2023-04-18T06:13:38.607Z,10.75
2023-04-18T06:16:07.200Z,9.57
2023-04-18T06:18:35.686Z,9.40
2023-04-18T06:21:03.732Z,10.38
2023-04-18T06:23:31.794Z,10.80
2023-04-18T06:26:01.713Z,10.85
2023-04-18T06:28:29.679Z,9.45
2023-04-18T06:30:57.627Z,10.23
2023-04-18T06:33:25.665Z,9.68
2023-04-18T06:35:54.019Z,9.73
2023-04-18T06:38:22.113Z,9.60
2023-04-18T06:40:50.063Z,8.40
2023-04-18T06:43:19.406Z,8.55
2023-04-18T06:45:47.423Z,9.35
2023-04-18T06:48:15.563Z,9.93
2023-04-18T06:50:43.853Z,8.75
2023-04-18T06:53:11.894Z,9.25
2023-04-18T06:55:40.794Z,9.02
2023-04-18T06:58:10.107Z,8.85
2023-04-18T07:00:39.512Z,8.88
2023-04-18T07:03:11.365Z,9.23
2023-04-18T07:05:39.933Z,8.90
2023-04-18T07:08:08.516Z,9.30
2023-04-18T07:10:36.561Z,8.68
2023-04-18T07:13:04.651Z,9.20
2023-04-18T07:15:32.731Z,9.32
2023-04-18T07:18:02.165Z,8.98
2023-04-18T07:20:30.171Z,9.38
2023-04-18T07:22:58.115Z,9.10
2023-04-18T07:25:26.299Z,9.20
2023-04-18T07:27:54.305Z,9.32
2023-04-18T07:30:22.404Z,9.45
2023-04-18T07:32:50.541Z,9.10
2023-04-18T07:35:19.882Z,10.02
2023-04-18T07:37:47.869Z,10.10
2023-04-18T07:40:16.552Z,10.77
2023-04-18T07:42:44.491Z,10.20
2023-04-18T07:45:12.661Z,10.70
2023-04-18T07:47:40.650Z,9.98
2023-04-18T07:50:10.235Z,10.60
2023-04-18T07:52:39.762Z,10.27
2023-04-18T07:55:08.817Z,10.65
2023-04-18T07:57:36.833Z,10.77
2023-04-18T08:00:06.398Z,11.30
2023-04-18T08:02:41.731Z,10.95
2023-04-18T08:05:10.779Z,10.80
2023-04-18T08:07:40.253Z,11.18
2023-04-18T08:10:09.048Z,12.57
2023-04-18T08:12:37.308Z,11.57
2023-04-18T08:15:05.703Z,10.32
2023-04-18T08:17:33.797Z,9.40
2023-04-18T08:20:04.859Z,11.73
2023-04-18T08:22:32.879Z,10.13
2023-04-18T08:25:05.578Z,11.45
2023-04-18T08:27:33.883Z,11.13
2023-04-18T08:30:04.120Z,10.35
2023-04-18T08:32:32.524Z,11.35
2023-04-18T08:35:00.929Z,11.35
2023-04-18T08:37:29.109Z,11.25
2023-04-18T08:39:57.156Z,10.88
2023-04-18T08:42:26.816Z,11.75
2023-04-18T08:44:55.081Z,11.85
2023-04-18T08:47:23.754Z,10.50
2023-04-18T08:49:53.549Z,11.90
2023-04-18T08:52:23.612Z,12.63
2023-04-18T08:54:52.511Z,12.88
2023-04-18T08:57:26.706Z,12.43
2023-04-18T08:59:56.456Z,12.27
2023-04-18T09:02:38.784Z,13.30
2023-04-18T09:05:12.781Z,13.27
2023-04-18T09:07:40.972Z,12.02
2023-04-18T09:10:09.885Z,14.10
2023-04-18T09:12:44.636Z,14.10
2023-04-18T09:15:15.975Z,14.57
2023-04-18T09:17:49.333Z,13.90
2023-04-18T09:20:37.644Z,12.00
2023-04-18T09:23:10.675Z,14.15
2023-04-18T09:25:46.360Z,12.65
2023-04-18T09:28:27.037Z,13.20
2023-04-18T09:30:57.248Z,13.07
2023-04-18T09:33:32.488Z,13.32
2023-04-18T09:36:18.814Z,13.02
2023-04-18T09:38:47.262Z,14.65
2023-04-18T09:41:19.951Z,13.13
2023-04-18T09:43:49.763Z,12.85
2023-04-18T09:46:19.147Z,14.25
2023-04-18T09:48:47.268Z,13.65
2023-04-18T09:51:17.167Z,14.18
2023-04-18T09:53:47.505Z,13.52
2023-04-18T09:56:20.951Z,13.02
2023-04-18T09:58:57.533Z,13.10
2023-04-18T10:01:29.604Z,12.80
2023-04-18T10:03:58.679Z,13.10
2023-04-18T10:06:28.564Z,11.70
2023-04-18T10:08:57.074Z,13.02
2023-04-18T10:11:25.791Z,12.60
2023-04-18T10:13:57.943Z,13.30
2023-04-18T10:16:28.679Z,12.32
2023-04-18T10:18:58.321Z,12.27
2023-04-18T10:21:27.654Z,11.30
2023-04-18T10:23:55.731Z,12.30
2023-04-18T10:26:50.090Z,13.30
2023-04-18T10:29:18.822Z,13.70
2023-04-18T10:31:48.793Z,12.85
2023-04-18T10:34:19.537Z,13.80
2023-04-18T10:37:06.065Z,13.15
2023-04-18T10:39:49.353Z,13.43
2023-04-18T10:42:17.518Z,13.65
2023-04-18T10:45:05.564Z,12.55
2023-04-18T10:47:35.148Z,12.55
2023-04-18T10:50:06.750Z,12.55
2023-04-18T10:52:36.376Z,12.80
2023-04-18T10:55:18.167Z,16.63
2023-04-18T10:57:47.559Z,11.63
2023-04-18T11:00:17.726Z,10.82
2023-04-18T11:02:57.896Z,12.88
2023-04-18T11:05:27.738Z,11.38
2023-04-18T11:07:56.180Z,11.98
2023-04-18T11:10:26.580Z,11.43
2023-04-18T11:12:55.380Z,12.48
2023-04-18T11:15:25.611Z,12.32
2023-04-18T11:18:00.000Z,13.15
2023-04-18T11:20:28.442Z,13.02
2023-04-18T11:22:58.630Z,13.52
2023-04-18T11:25:28.824Z,13.75
2023-04-18T11:27:59.986Z,13.25
2023-04-18T11:30:28.512Z,11.77
2023-04-18T11:32:57.942Z,12.35
2023-04-18T11:35:26.013Z,12.75
2023-04-18T11:37:56.156Z,12.32
2023-04-18T11:40:24.224Z,13.35
2023-04-18T11:42:55.311Z,13.43
2023-04-18T11:45:23.269Z,13.30
2023-04-18T11:47:58.457Z,14.57
2023-04-18T11:50:26.949Z,13.23
2023-04-18T11:52:56.162Z,12.02
2023-04-18T11:55:27.092Z,12.20
2023-04-18T11:57:56.449Z,12.95
2023-04-18T12:00:33.970Z,14.48
2023-04-18T12:03:05.531Z,14.07
2023-04-18T12:05:35.950Z,13.90
2023-04-18T12:08:08.490Z,14.40
2023-04-18T12:10:37.006Z,14.57
2023-04-18T12:13:08.486Z,14.48
2023-04-18T12:15:39.839Z,15.13
2023-04-18T12:18:09.425Z,14.40
2023-04-18T12:20:38.873Z,12.25
2023-04-18T12:23:07.965Z,14.10
2023-04-18T12:25:36.392Z,14.63
2023-04-18T12:28:15.352Z,13.95
2023-04-18T12:30:43.623Z,13.95
2023-04-18T12:33:13.300Z,13.48
2023-04-18T12:35:41.358Z,13.00
2023-04-18T12:38:09.380Z,12.23
2023-04-18T12:40:39.911Z,13.52
2023-04-18T12:43:08.272Z,13.05
2023-04-18T12:45:36.407Z,12.15
2023-04-18T12:48:04.600Z,13.00
2023-04-18T12:50:34.160Z,14.05
2023-04-18T12:53:03.266Z,13.70
2023-04-18T12:55:31.300Z,12.00
2023-04-18T12:57:59.344Z,13.45
2023-04-18T13:00:29.283Z,13.95
2023-04-18T13:02:57.784Z,13.30
2023-04-18T13:05:29.173Z,13.68
2023-04-18T13:08:12.679Z,13.57
2023-04-18T13:10:43.952Z,12.73
2023-04-18T13:13:11.933Z,13.38
2023-04-18T13:15:40.122Z,11.98
2023-04-18T13:18:08.398Z,12.55
2023-04-18T13:20:37.054Z,13.23
2023-04-18T13:23:06.591Z,11.85
2023-04-18T13:25:34.618Z,13.38
2023-04-18T13:28:02.593Z,12.95
2023-04-18T13:30:30.564Z,12.45
2023-04-18T13:32:58.574Z,12.70
2023-04-18T13:35:26.518Z,13.63
2023-04-18T13:37:54.548Z,12.57
2023-04-18T13:40:24.210Z,12.93
2023-04-18T13:42:52.474Z,13.40
2023-04-18T13:45:20.940Z,12.43
2023-04-18T13:47:49.036Z,12.43
2023-04-18T13:50:17.002Z,12.35
2023-04-18T13:52:45.055Z,13.80
2023-04-18T13:55:13.273Z,13.27
2023-04-18T13:57:42.900Z,11.93
2023-04-18T14:00:13.957Z,12.32
2023-04-18T14:02:42.200Z,13.55
2023-04-18T14:05:10.920Z,12.25
2023-04-18T14:07:39.261Z,12.00
2023-04-18T14:10:08.212Z,11.50
2023-04-18T14:12:36.331Z,12.90
2023-04-18T14:15:06.818Z,15.38
2023-04-18T14:17:34.960Z,10.00
2023-04-18T14:20:03.361Z,10.88
2023-04-18T14:22:31.318Z,11.20
2023-04-18T14:24:59.310Z,11.60
2023-04-18T14:27:27.697Z,10.43
2023-04-18T14:29:55.719Z,10.63
2023-04-18T14:32:26.680Z,10.10
2023-04-18T14:34:54.618Z,10.43
2023-04-18T14:37:23.030Z,10.85
2023-04-18T14:39:51.044Z,10.25
2023-04-18T14:42:19.382Z,11.45
2023-04-18T14:44:47.373Z,10.45
2023-04-18T14:47:16.314Z,10.52
2023-04-18T14:49:45.578Z,10.07
2023-04-18T14:52:13.974Z,9.30
2023-04-18T14:54:42.118Z,9.68
2023-04-18T14:57:10.230Z,12.32
2023-04-18T14:59:38.310Z,10.18
2023-04-18T15:02:06.384Z,9.98
2023-04-18T15:04:34.664Z,8.32
2023-04-18T15:07:04.019Z,8.15
2023-04-18T15:09:36.376Z,7.68
2023-04-18T15:12:04.625Z,9.40
2023-04-18T15:14:32.964Z,11.20
2023-04-18T15:17:01.212Z,11.82
2023-04-18T15:19:30.375Z,12.63
2023-04-18T15:21:58.514Z,11.95
2023-04-18T15:24:28.013Z,13.05
2023-04-18T15:26:57.000Z,12.43
2023-04-18T15:29:24.955Z,11.85
2023-04-18T15:31:53.052Z,12.18
2023-04-18T15:34:21.229Z,10.73
2023-04-18T15:36:49.798Z,11.57
2023-04-18T15:39:21.711Z,12.75
2023-04-18T15:41:53.658Z,12.48
2023-04-18T15:44:21.862Z,12.68
2023-04-18T15:46:50.017Z,11.77
2023-04-18T15:49:18.120Z,13.50
2023-04-18T15:51:46.128Z,12.48
2023-04-18T15:54:14.519Z,11.55
2023-04-18T15:56:44.670Z,10.55
2023-04-18T15:59:14.708Z,11.13
2023-04-18T16:01:45.633Z,10.70
2023-04-18T16:04:14.344Z,11.15
2023-04-18T16:06:43.160Z,10.65
2023-04-18T16:09:11.132Z,11.45
2023-04-18T16:11:39.151Z,11.93
2023-04-18T16:14:07.205Z,10.90
2023-04-18T16:16:36.576Z,11.02
2023-04-18T16:19:05.434Z,10.02
2023-04-18T16:21:33.658Z,9.43
2023-04-18T16:24:01.795Z,9.18
2023-04-18T16:26:29.794Z,9.07
2023-04-18T16:28:58.009Z,8.82
2023-04-18T16:31:26.167Z,8.85
2023-04-18T16:33:56.012Z,9.07
2023-04-18T16:36:24.238Z,8.88
2023-04-18T16:38:52.193Z,8.65
2023-04-18T16:41:20.136Z,8.50
2023-04-18T16:43:48.087Z,8.75
2023-04-18T16:46:16.141Z,8.10
2023-04-18T16:48:45.200Z,8.48
2023-04-18T16:51:14.684Z,8.23
2023-04-18T16:53:42.732Z,8.73
2023-04-18T16:56:10.698Z,8.27
2023-04-18T16:58:38.764Z,8.40
2023-04-18T17:01:08.042Z,8.00
2023-04-18T17:03:36.576Z,8.65
2023-04-18T17:06:05.765Z,8.60
2023-04-18T17:08:35.910Z,8.02
2023-04-18T17:11:04.196Z,9.00
2023-04-18T17:13:32.393Z,8.60
2023-04-18T17:16:00.718Z,9.00
2023-04-18T17:18:29.378Z,8.80
2023-04-18T17:20:57.448Z,8.57
2023-04-18T17:23:25.475Z,8.65
2023-04-18T17:25:54.828Z,8.52
2023-04-18T17:28:23.522Z,8.00
2023-04-18T17:30:51.802Z,8.85
2023-04-18T17:33:19.761Z,9.02
2023-04-18T17:35:48.184Z,8.40
2023-04-18T17:38:16.172Z,9.43
2023-04-18T17:40:44.135Z,9.85
2023-04-18T17:43:13.604Z,10.48
2023-04-18T17:45:42.345Z,10.15
2023-04-18T17:48:10.304Z,9.55
2023-04-18T17:50:38.398Z,9.70
2023-04-18T17:53:06.289Z,11.07
2023-04-18T17:55:34.353Z,10.80
2023-04-18T17:58:02.295Z,11.23
2023-04-18T18:00:31.655Z,12.85
2023-04-18T18:03:01.345Z,11.25
2023-04-18T18:05:30.233Z,13.23
2023-04-18T18:07:58.424Z,13.38
2023-04-18T18:10:26.823Z,13.60
2023-04-18T18:12:54.820Z,11.02
2023-04-18T18:15:24.103Z,11.65
2023-04-18T18:17:54.790Z,11.48
2023-04-18T18:20:22.904Z,13.00
2023-04-18T18:22:51.393Z,11.13
2023-04-18T18:25:20.605Z,11.40
2023-04-18T18:27:49.327Z,12.90
2023-04-18T18:30:17.414Z,12.88
2023-04-18T18:32:45.352Z,11.38
2023-04-18T18:35:14.909Z,12.32
2023-04-18T18:37:42.970Z,12.95
2023-04-18T18:40:11.576Z,11.48
2023-04-18T18:42:39.541Z,12.38
2023-04-18T18:45:08.899Z,11.85
2023-04-18T18:47:39.624Z,12.27
2023-04-18T18:50:08.735Z,13.07
2023-04-18T18:52:40.708Z,11.48
2023-04-18T18:55:09.845Z,12.85
2023-04-18T18:57:38.066Z,11.75
2023-04-18T19:00:09.299Z,12.70
2023-04-18T19:02:37.722Z,11.32
2023-04-18T19:05:07.400Z,12.55
2023-04-18T19:07:36.813Z,12.00
2023-04-18T19:10:05.578Z,11.48
2023-04-18T19:12:33.525Z,12.68
2023-04-18T19:15:01.752Z,12.85
2023-04-18T19:17:30.921Z,12.25
2023-04-18T19:20:01.206Z,13.32
2023-04-18T19:22:29.442Z,12.48
2023-04-18T19:25:00.383Z,12.50
2023-04-18T19:27:28.424Z,13.85
2023-04-18T19:29:56.424Z,12.77
2023-04-18T19:32:24.503Z,12.32
2023-04-18T19:34:52.593Z,13.07
2023-04-18T19:37:20.782Z,12.73
2023-04-18T19:39:48.881Z,13.13
2023-04-18T19:42:18.247Z,12.77
2023-04-18T19:44:46.209Z,11.38
2023-04-18T19:47:14.246Z,11.68
2023-04-18T19:49:42.187Z,12.20
2023-04-18T19:52:10.234Z,12.60
2023-04-18T19:54:38.296Z,12.52
2023-04-18T19:57:06.348Z,11.73
2023-04-18T19:59:35.732Z,12.65
2023-04-18T20:02:05.897Z,11.70
2023-04-18T20:04:36.533Z,12.23
2023-04-18T20:07:04.803Z,11.80
2023-04-18T20:09:32.762Z,12.50
2023-04-18T20:12:01.892Z,12.50
2023-04-18T20:14:30.236Z,11.93
2023-04-18T20:16:59.619Z,12.73
2023-04-18T20:19:29.611Z,12.93
2023-04-18T20:21:57.708Z,12.02
2023-04-18T20:24:27.949Z,10.98
2023-04-18T20:26:57.119Z,13.25
2023-04-18T20:29:25.291Z,12.40
2023-04-18T20:31:53.157Z,11.55
2023-04-18T20:34:22.426Z,12.27
2023-04-18T20:36:52.328Z,11.48
2023-04-18T20:39:20.319Z,12.57
2023-04-18T20:41:51.290Z,12.43
2023-04-18T20:44:21.675Z,12.52
2023-04-18T20:46:49.709Z,11.80
2023-04-18T20:49:17.786Z,11.75
2023-04-18T20:51:47.150Z,11.80
2023-04-18T20:54:15.496Z,11.90
2023-04-18T20:56:43.585Z,10.82
2023-04-18T20:59:11.551Z,11.73
2023-04-18T21:01:39.549Z,11.95
2023-04-18T21:04:07.640Z,12.68
2023-04-18T21:06:36.512Z,12.75
2023-04-18T21:09:06.425Z,11.27
2023-04-18T21:11:34.534Z,11.10
2023-04-18T21:14:03.776Z,11.95
2023-04-18T21:16:31.959Z,11.85
2023-04-18T21:18:59.966Z,12.13
2023-04-18T21:21:28.361Z,11.85
2023-04-18T21:23:56.269Z,11.38
2023-04-18T21:26:25.749Z,12.05
2023-04-18T21:28:58.194Z,12.57
2023-04-18T21:31:27.393Z,10.70
2023-04-18T21:33:56.150Z,11.45
2023-04-18T21:36:26.376Z,11.95
2023-04-18T21:38:55.273Z,11.88
2023-04-18T21:41:25.626Z,12.77
2023-04-18T21:43:54.184Z,11.52
2023-04-18T21:46:22.554Z,12.63
2023-04-18T21:48:50.616Z,13.73
2023-04-18T21:51:18.728Z,12.65
2023-04-18T21:53:46.664Z,11.80
2023-04-18T21:56:15.035Z,11.60
2023-04-18T21:58:44.361Z,12.38
2023-04-18T22:01:12.641Z,13.57
2023-04-18T22:03:40.746Z,14.10
2023-04-18T22:06:08.984Z,12.15
2023-04-18T22:08:36.972Z,13.15
2023-04-18T22:11:05.660Z,12.25
2023-04-18T22:13:33.713Z,12.82
2023-04-18T22:16:04.023Z,12.73
2023-04-18T22:18:34.244Z,12.73
2023-04-18T22:21:03.206Z,12.45
2023-04-18T22:23:31.706Z,14.13
2023-04-18T22:25:59.693Z,14.55
2023-04-18T22:28:28.354Z,13.35
2023-04-18T22:30:56.387Z,13.90
2023-04-18T22:33:25.912Z,13.13
2023-04-18T22:35:54.205Z,13.80
2023-04-18T22:38:22.365Z,13.13
2023-04-18T22:40:50.290Z,14.60
2023-04-18T22:43:22.490Z,13.68
2023-04-18T22:45:51.220Z,13.77
2023-04-18T22:48:19.539Z,13.05
2023-04-18T22:50:49.705Z,14.60
2023-04-18T22:53:17.923Z,14.27
2023-04-18T22:55:46.591Z,14.65
2023-04-18T22:58:14.692Z,12.50
2023-04-18T23:00:43.867Z,14.18
2023-04-18T23:03:12.035Z,13.70
2023-04-18T23:05:40.905Z,14.10
2023-04-18T23:08:11.808Z,15.57
2023-04-18T23:10:40.006Z,12.60
2023-04-18T23:13:08.090Z,13.95
2023-04-18T23:15:36.032Z,14.75
2023-04-18T23:18:04.364Z,12.98
2023-04-18T23:20:32.417Z,12.90
2023-04-18T23:23:00.520Z,12.82
2023-04-18T23:25:29.821Z,13.18
2023-04-18T23:27:57.790Z,13.65
2023-04-18T23:30:26.642Z,14.85
2023-04-18T23:32:54.832Z,14.45
2023-04-18T23:35:23.010Z,14.23
2023-04-18T23:37:51.151Z,13.68
2023-04-18T23:40:19.362Z,13.30
2023-04-18T23:42:48.656Z,14.02
2023-04-18T23:45:16.721Z,12.55
2023-04-18T23:47:44.726Z,13.32
2023-04-18T23:50:13.218Z,14.40
2023-04-18T23:52:41.223Z,14.45
2023-04-18T23:55:09.965Z,15.18
2023-04-18T23:57:38.234Z,13.77
